sensor_id;sensor_type;location;lat;lon;timestamp;P1;durP1;ratioP1;P2;durP2;ratioP2
8171;SDS011;4127;47.908;10.850;2023-07-31T09:01:48;2.83;;;2.40;;
8171;SDS011;4127;47.908;10.850;2023-07-31T09:04:16;4.10;;;2.10;;
8171;SDS011;4127;47.908;10.850;2023-07-31T09:06:46;2.20;;;2.00;;
8171;SDS011;4127;47.908;10.850;2023-07-31T09:09:14;2.13;;;1.67;;
8171;SDS011;4127;47.908;10.850;2023-07-31T09:11:41;3.90;;;2.20;;
8171;SDS011;4127;47.908;10.850;2023-07-31T09:14:08;3.30;;;2.40;;
8171;SDS011;4127;47.908;10.850;2023-07-31T09:16:38;3.90;;;2.00;;
8171;SDS011;4127;47.908;10.850;2023-07-31T09:19:29;2.43;;;2.00;;
8171;SDS011;4127;47.908;10.850;2023-07-31T09:22:00;2.80;;;1.80;;
8171;SDS011;4127;47.908;10.850;2023-07-31T09:24:28;2.10;;;1.90;;
8171;SDS011;4127;47.908;10.850;2023-07-31T09:26:57;2.97;;;2.40;;
8171;SDS011;4127;47.908;10.850;2023-07-31T09:29:25;2.60;;;2.40;;
8171;SDS011;4127;47.908;10.850;2023-07-31T09:31:53;2.80;;;2.13;;
8171;SDS011;4127;47.908;10.850;2023-07-31T09:34:28;3.77;;;2.73;;
8171;SDS011;4127;47.908;10.850;2023-07-31T09:37:02;3.27;;;1.90;;
8171;SDS011;4127;47.908;10.850;2023-07-31T09:39:30;3.37;;;2.00;;
8171;SDS011;4127;47.908;10.850;2023-07-31T09:41:57;3.33;;;2.23;;
8171;SDS011;4127;47.908;10.850;2023-07-31T09:44:37;2.43;;;1.80;;
8171;SDS011;4127;47.908;10.850;2023-07-31T09:47:06;3.83;;;1.90;;
8171;SDS011;4127;47.908;10.850;2023-07-31T09:49:32;3.80;;;2.40;;
8171;SDS011;4127;47.908;10.850;2023-07-31T09:51:59;3.13;;;1.90;;
8171;SDS011;4127;47.908;10.850;2023-07-31T09:54:26;2.58;;;1.90;;
8171;SDS011;4127;47.908;10.850;2023-07-31T09:56:53;2.20;;;2.00;;
8171;SDS011;4127;47.908;10.850;2023-07-31T09:59:22;2.20;;;2.00;;
8171;SDS011;4127;47.908;10.850;2023-07-31T10:01:50;2.33;;;2.10;;
8171;SDS011;4127;47.908;10.850;2023-07-31T10:04:18;2.90;;;2.00;;
8171;SDS011;4127;47.908;10.850;2023-07-31T10:06:52;2.67;;;1.80;;
8171;SDS011;4127;47.908;10.850;2023-07-31T10:09:20;2.27;;;2.00;;
8171;SDS011;4127;47.908;10.850;2023-07-31T10:11:52;2.90;;;2.17;;
8171;SDS011;4127;47.908;10.850;2023-07-31T10:14:25;2.50;;;2.00;;
8171;SDS011;4127;47.908;10.850;2023-07-31T10:16:53;4.35;;;2.25;;
8171;SDS011;4127;47.908;10.850;2023-07-31T10:19:21;2.55;;;2.22;;
8171;SDS011;4127;47.908;10.850;2023-07-31T10:21:48;2.17;;;1.80;;
8171;SDS011;4127;47.908;10.850;2023-07-31T10:24:16;4.83;;;2.20;;
8171;SDS011;4127;47.908;10.850;2023-07-31T10:26:44;3.07;;;2.30;;
8171;SDS011;4127;47.908;10.850;2023-07-31T10:29:13;3.67;;;2.45;;
8171;SDS011;4127;47.908;10.850;2023-07-31T10:31:42;3.00;;;2.30;;
8171;SDS011;4127;47.908;10.850;2023-07-31T10:34:10;3.13;;;2.10;;
8171;SDS011;4127;47.908;10.850;2023-07-31T10:36:37;3.10;;;2.10;;
8171;SDS011;4127;47.908;10.850;2023-07-31T10:39:05;2.38;;;1.90;;
8171;SDS011;4127;47.908;10.850;2023-07-31T10:42:12;2.47;;;2.00;;
8171;SDS011;4127;47.908;10.850;2023-07-31T10:44:46;2.53;;;2.22;;
8171;SDS011;4127;47.908;10.850;2023-07-31T10:47:16;2.20;;;2.00;;
8171;SDS011;4127;47.908;10.850;2023-07-31T10:49:44;2.92;;;2.20;;
8171;SDS011;4127;47.908;10.850;2023-07-31T10:52:13;1.85;;;1.75;;
8171;SDS011;4127;47.908;10.850;2023-07-31T10:54:40;2.42;;;2.20;;
8171;SDS011;4127;47.908;10.850;2023-07-31T10:57:22;3.08;;;2.00;;
8171;SDS011;4127;47.908;10.850;2023-07-31T10:59:49;2.53;;;2.20;;
8171;SDS011;4127;47.908;10.850;2023-07-31T11:02:26;2.75;;;2.03;;
8171;SDS011;4127;47.908;10.850;2023-07-31T11:05:10;3.35;;;2.08;;
8171;SDS011;4127;47.908;10.850;2023-07-31T11:07:50;2.10;;;1.70;;
8171;SDS011;4127;47.908;10.850;2023-07-31T11:10:20;2.30;;;2.10;;
8171;SDS011;4127;47.908;10.850;2023-07-31T11:12:49;3.20;;;2.10;;
8171;SDS011;4127;47.908;10.850;2023-07-31T11:15:16;2.88;;;2.13;;
8171;SDS011;4127;47.908;10.850;2023-07-31T11:17:43;3.40;;;2.10;;
8171;SDS011;4127;47.908;10.850;2023-07-31T11:20:10;3.28;;;1.95;;
8171;SDS011;4127;47.908;10.850;2023-07-31T11:22:37;2.03;;;1.80;;
8171;SDS011;4127;47.908;10.850;2023-07-31T11:25:04;2.28;;;1.70;;
8171;SDS011;4127;47.908;10.850;2023-07-31T11:27:38;2.60;;;1.70;;
8171;SDS011;4127;47.908;10.850;2023-07-31T11:30:06;3.53;;;1.98;;
8171;SDS011;4127;47.908;10.850;2023-07-31T11:32:33;2.75;;;2.10;;
8171;SDS011;4127;47.908;10.850;2023-07-31T11:35:02;2.50;;;2.05;;
8171;SDS011;4127;47.908;10.850;2023-07-31T11:37:40;2.72;;;2.00;;
8171;SDS011;4127;47.908;10.850;2023-07-31T11:40:10;2.47;;;2.10;;
8171;SDS011;4127;47.908;10.850;2023-07-31T11:42:37;2.95;;;2.00;;
8171;SDS011;4127;47.908;10.850;2023-07-31T11:45:04;2.47;;;1.83;;
8171;SDS011;4127;47.908;10.850;2023-07-31T11:47:32;4.00;;;1.98;;
8171;SDS011;4127;47.908;10.850;2023-07-31T11:50:04;2.40;;;1.90;;
8171;SDS011;4127;47.908;10.850;2023-07-31T11:52:41;2.10;;;1.90;;
8171;SDS011;4127;47.908;10.850;2023-07-31T11:55:11;3.13;;;1.90;;
8171;SDS011;4127;47.908;10.850;2023-07-31T11:57:39;2.38;;;1.92;;
8171;SDS011;4127;47.908;10.850;2023-07-31T12:00:08;2.92;;;2.00;;
8171;SDS011;4127;47.908;10.850;2023-07-31T12:02:37;2.47;;;2.28;;
8171;SDS011;4127;47.908;10.850;2023-07-31T12:05:09;2.85;;;1.95;;
8171;SDS011;4127;47.908;10.850;2023-07-31T12:07:49;1.98;;;1.85;;
8171;SDS011;4127;47.908;10.850;2023-07-31T12:10:28;3.05;;;2.00;;
8171;SDS011;4127;47.908;10.850;2023-07-31T12:15:34;2.88;;;2.33;;
8171;SDS011;4127;47.908;10.850;2023-07-31T12:18:15;2.47;;;2.00;;
8171;SDS011;4127;47.908;10.850;2023-07-31T12:20:47;2.50;;;2.15;;
8171;SDS011;4127;47.908;10.850;2023-07-31T12:23:20;2.70;;;1.90;;
8171;SDS011;4127;47.908;10.850;2023-07-31T12:28:44;2.85;;;1.90;;
8171;SDS011;4127;47.908;10.850;2023-07-31T12:31:13;2.33;;;1.80;;
8171;SDS011;4127;47.908;10.850;2023-07-31T12:33:43;2.15;;;1.92;;
8171;SDS011;4127;47.908;10.850;2023-07-31T12:36:15;2.92;;;1.98;;
8171;SDS011;4127;47.908;10.850;2023-07-31T12:38:43;2.05;;;1.80;;
8171;SDS011;4127;47.908;10.850;2023-07-31T12:41:11;2.33;;;1.70;;
8171;SDS011;4127;47.908;10.850;2023-07-31T12:43:39;3.35;;;1.98;;
8171;SDS011;4127;47.908;10.850;2023-07-31T12:46:07;1.75;;;1.63;;
8171;SDS011;4127;47.908;10.850;2023-07-31T12:48:35;2.30;;;2.10;;
8171;SDS011;4127;47.908;10.850;2023-07-31T12:51:02;2.00;;;1.80;;
8171;SDS011;4127;47.908;10.850;2023-07-31T12:53:29;2.30;;;2.00;;
8171;SDS011;4127;47.908;10.850;2023-07-31T12:55:56;1.90;;;1.70;;
8171;SDS011;4127;47.908;10.850;2023-07-31T12:58:23;3.30;;;2.20;;
8171;SDS011;4127;47.908;10.850;2023-07-31T13:00:51;3.40;;;1.90;;
8171;SDS011;4127;47.908;10.850;2023-07-31T13:03:18;2.03;;;1.63;;
8171;SDS011;4127;47.908;10.850;2023-07-31T13:05:45;2.72;;;2.00;;
8171;SDS011;4127;47.908;10.850;2023-07-31T13:08:12;3.13;;;1.95;;
8171;SDS011;4127;47.908;10.850;2023-07-31T13:10:40;2.00;;;1.63;;
8171;SDS011;4127;47.908;10.850;2023-07-31T13:13:07;1.92;;;1.60;;
8171;SDS011;4127;47.908;10.850;2023-07-31T13:15:35;2.67;;;1.95;;
8171;SDS011;4127;47.908;10.850;2023-07-31T13:18:02;1.88;;;1.67;;
8171;SDS011;4127;47.908;10.850;2023-07-31T13:20:29;2.33;;;1.80;;
8171;SDS011;4127;47.908;10.850;2023-07-31T13:22:56;1.98;;;1.52;;
8171;SDS011;4127;47.908;10.850;2023-07-31T13:25:23;2.50;;;1.70;;
8171;SDS011;4127;47.908;10.850;2023-07-31T13:27:50;1.80;;;1.70;;
8171;SDS011;4127;47.908;10.850;2023-07-31T13:30:17;1.70;;;1.60;;
8171;SDS011;4127;47.908;10.850;2023-07-31T13:32:44;1.83;;;1.70;;
8171;SDS011;4127;47.908;10.850;2023-07-31T13:35:11;1.92;;;1.70;;
8171;SDS011;4127;47.908;10.850;2023-07-31T13:37:38;2.20;;;1.90;;
8171;SDS011;4127;47.908;10.850;2023-07-31T13:40:05;2.25;;;1.95;;
8171;SDS011;4127;47.908;10.850;2023-07-31T13:42:33;2.67;;;2.03;;
8171;SDS011;4127;47.908;10.850;2023-07-31T13:45:00;1.77;;;1.67;;
8171;SDS011;4127;47.908;10.850;2023-07-31T13:47:30;1.77;;;1.67;;
8171;SDS011;4127;47.908;10.850;2023-07-31T13:49:58;1.98;;;1.60;;
8171;SDS011;4127;47.908;10.850;2023-07-31T13:52:25;2.05;;;1.50;;
8171;SDS011;4127;47.908;10.850;2023-07-31T13:54:52;1.52;;;1.40;;
8171;SDS011;4127;47.908;10.850;2023-07-31T13:57:19;1.70;;;1.60;;
8171;SDS011;4127;47.908;10.850;2023-07-31T13:59:46;2.33;;;1.60;;
8171;SDS011;4127;47.908;10.850;2023-07-31T14:02:13;2.47;;;1.50;;
8171;SDS011;4127;47.908;10.850;2023-07-31T14:04:41;1.50;;;1.40;;
8171;SDS011;4127;47.908;10.850;2023-07-31T14:07:08;1.95;;;1.80;;
8171;SDS011;4127;47.908;10.850;2023-07-31T14:09:35;2.40;;;1.80;;
8171;SDS011;4127;47.908;10.850;2023-07-31T14:12:02;2.00;;;1.50;;
8171;SDS011;4127;47.908;10.850;2023-07-31T14:14:29;1.80;;;1.60;;
8171;SDS011;4127;47.908;10.850;2023-07-31T14:16:56;1.40;;;1.30;;
8171;SDS011;4127;47.908;10.850;2023-07-31T14:19:23;2.22;;;1.67;;
8171;SDS011;4127;47.908;10.850;2023-07-31T14:21:51;1.65;;;1.55;;
8171;SDS011;4127;47.908;10.850;2023-07-31T14:24:34;2.65;;;1.55;;
8171;SDS011;4127;47.908;10.850;2023-07-31T14:27:01;1.40;;;1.30;;
8171;SDS011;4127;47.908;10.850;2023-07-31T14:29:29;3.30;;;2.08;;
8171;SDS011;4127;47.908;10.850;2023-07-31T14:31:56;1.50;;;1.40;;
8171;SDS011;4127;47.908;10.850;2023-07-31T14:34:23;1.70;;;1.55;;
8171;SDS011;4127;47.908;10.850;2023-07-31T14:36:50;1.58;;;1.48;;
8171;SDS011;4127;47.908;10.850;2023-07-31T14:39:17;2.20;;;1.55;;
8171;SDS011;4127;47.908;10.850;2023-07-31T14:41:44;1.48;;;1.38;;
8171;SDS011;4127;47.908;10.850;2023-07-31T14:44:11;1.77;;;1.58;;
8171;SDS011;4127;47.908;10.850;2023-07-31T14:46:38;2.50;;;1.85;;
8171;SDS011;4127;47.908;10.850;2023-07-31T14:49:06;1.80;;;1.70;;
8171;SDS011;4127;47.908;10.850;2023-07-31T14:51:33;1.80;;;1.50;;
8171;SDS011;4127;47.908;10.850;2023-07-31T14:54:00;2.05;;;1.60;;
8171;SDS011;4127;47.908;10.850;2023-07-31T14:56:27;1.85;;;1.48;;
8171;SDS011;4127;47.908;10.850;2023-07-31T14:58:54;2.03;;;1.58;;
8171;SDS011;4127;47.908;10.850;2023-07-31T15:01:21;2.40;;;1.70;;
8171;SDS011;4127;47.908;10.850;2023-07-31T15:03:48;2.03;;;1.70;;
8171;SDS011;4127;47.908;10.850;2023-07-31T15:06:15;1.75;;;1.50;;
8171;SDS011;4127;47.908;10.850;2023-07-31T15:08:42;2.83;;;1.98;;
8171;SDS011;4127;47.908;10.850;2023-07-31T15:11:09;2.30;;;1.80;;
8171;SDS011;4127;47.908;10.850;2023-07-31T15:13:36;3.13;;;2.20;;
8171;SDS011;4127;47.908;10.850;2023-07-31T15:16:03;2.00;;;1.90;;
8171;SDS011;4127;47.908;10.850;2023-07-31T15:18:30;3.20;;;2.25;;
8171;SDS011;4127;47.908;10.850;2023-07-31T15:20:57;3.00;;;2.20;;
8171;SDS011;4127;47.908;10.850;2023-07-31T15:23:24;2.75;;;2.30;;
8171;SDS011;4127;47.908;10.850;2023-07-31T15:25:52;2.45;;;2.25;;
8171;SDS011;4127;47.908;10.850;2023-07-31T15:28:19;2.70;;;2.50;;
8171;SDS011;4127;47.908;10.850;2023-07-31T15:30:46;3.65;;;2.25;;
8171;SDS011;4127;47.908;10.850;2023-07-31T15:33:14;2.50;;;2.30;;
8171;SDS011;4127;47.908;10.850;2023-07-31T15:35:41;3.78;;;2.28;;
8171;SDS011;4127;47.908;10.850;2023-07-31T15:38:09;2.45;;;2.10;;
8171;SDS011;4127;47.908;10.850;2023-07-31T15:40:38;2.42;;;2.22;;
8171;SDS011;4127;47.908;10.850;2023-07-31T15:43:05;2.72;;;2.20;;
8171;SDS011;4127;47.908;10.850;2023-07-31T15:45:32;2.80;;;2.53;;
8171;SDS011;4127;47.908;10.850;2023-07-31T15:47:59;2.60;;;2.40;;
8171;SDS011;4127;47.908;10.850;2023-07-31T15:50:26;2.50;;;2.30;;
8171;SDS011;4127;47.908;10.850;2023-07-31T15:52:53;3.63;;;2.67;;
8171;SDS011;4127;47.908;10.850;2023-07-31T15:55:21;2.97;;;2.40;;
8171;SDS011;4127;47.908;10.850;2023-07-31T15:57:48;2.40;;;2.20;;
8171;SDS011;4127;47.908;10.850;2023-07-31T16:00:15;2.83;;;2.38;;
8171;SDS011;4127;47.908;10.850;2023-07-31T16:02:43;2.42;;;2.22;;
8171;SDS011;4127;47.908;10.850;2023-07-31T16:05:10;2.05;;;1.80;;
8171;SDS011;4127;47.908;10.850;2023-07-31T16:07:37;2.15;;;1.95;;
8171;SDS011;4127;47.908;10.850;2023-07-31T16:10:04;2.35;;;2.00;;
8171;SDS011;4127;47.908;10.850;2023-07-31T16:12:32;2.40;;;2.20;;
8171;SDS011;4127;47.908;10.850;2023-07-31T16:14:59;2.13;;;1.92;;
8171;SDS011;4127;47.908;10.850;2023-07-31T16:17:26;2.17;;;1.98;;
8171;SDS011;4127;47.908;10.850;2023-07-31T16:19:53;2.50;;;2.30;;
8171;SDS011;4127;47.908;10.850;2023-07-31T16:22:20;2.83;;;2.10;;
8171;SDS011;4127;47.908;10.850;2023-07-31T16:24:47;2.45;;;2.20;;
8171;SDS011;4127;47.908;10.850;2023-07-31T16:27:14;2.47;;;2.28;;
8171;SDS011;4127;47.908;10.850;2023-07-31T16:29:41;2.92;;;2.20;;
8171;SDS011;4127;47.908;10.850;2023-07-31T16:32:08;3.45;;;2.72;;
8171;SDS011;4127;47.908;10.850;2023-07-31T16:34:37;3.10;;;2.80;;
8171;SDS011;4127;47.908;10.850;2023-07-31T16:37:04;3.00;;;2.70;;
8171;SDS011;4127;47.908;10.850;2023-07-31T16:39:31;2.58;;;2.38;;
8171;SDS011;4127;47.908;10.850;2023-07-31T16:42:02;3.20;;;2.45;;
8171;SDS011;4127;47.908;10.850;2023-07-31T16:44:30;2.65;;;2.30;;
8171;SDS011;4127;47.908;10.850;2023-07-31T16:46:57;2.88;;;2.60;;
8171;SDS011;4127;47.908;10.850;2023-07-31T16:49:24;2.85;;;2.55;;
8171;SDS011;4127;47.908;10.850;2023-07-31T16:51:51;2.63;;;2.28;;
8171;SDS011;4127;47.908;10.850;2023-07-31T16:54:18;2.80;;;2.60;;
8171;SDS011;4127;47.908;10.850;2023-07-31T16:56:45;2.60;;;2.25;;
8171;SDS011;4127;47.908;10.850;2023-07-31T16:59:25;3.13;;;2.83;;
8171;SDS011;4127;47.908;10.850;2023-07-31T17:01:53;2.83;;;2.63;;
8171;SDS011;4127;47.908;10.850;2023-07-31T17:04:25;2.78;;;2.40;;
8171;SDS011;4127;47.908;10.850;2023-07-31T17:06:52;2.78;;;2.50;;
8171;SDS011;4127;47.908;10.850;2023-07-31T17:09:19;2.35;;;2.15;;
8171;SDS011;4127;47.908;10.850;2023-07-31T17:11:46;2.55;;;2.35;;
8171;SDS011;4127;47.908;10.850;2023-07-31T17:14:13;2.38;;;2.17;;
8171;SDS011;4127;47.908;10.850;2023-07-31T17:16:42;2.75;;;2.38;;
8171;SDS011;4127;47.908;10.850;2023-07-31T17:19:09;2.60;;;2.40;;
8171;SDS011;4127;47.908;10.850;2023-07-31T17:21:36;2.63;;;2.03;;
8171;SDS011;4127;47.908;10.850;2023-07-31T17:24:04;3.33;;;2.53;;
8171;SDS011;4127;47.908;10.850;2023-07-31T17:26:31;2.30;;;2.10;;
8171;SDS011;4127;47.908;10.850;2023-07-31T17:28:58;2.42;;;2.15;;
8171;SDS011;4127;47.908;10.850;2023-07-31T17:31:26;3.20;;;2.08;;
8171;SDS011;4127;47.908;10.850;2023-07-31T17:33:53;2.40;;;2.20;;
8171;SDS011;4127;47.908;10.850;2023-07-31T17:36:21;2.72;;;2.42;;
8171;SDS011;4127;47.908;10.850;2023-07-31T17:38:47;3.42;;;2.10;;
8171;SDS011;4127;47.908;10.850;2023-07-31T17:41:14;2.60;;;2.28;;
8171;SDS011;4127;47.908;10.850;2023-07-31T17:43:41;2.47;;;2.22;;
8171;SDS011;4127;47.908;10.850;2023-07-31T17:46:08;2.30;;;2.08;;
8171;SDS011;4127;47.908;10.850;2023-07-31T17:48:35;3.17;;;2.15;;
8171;SDS011;4127;47.908;10.850;2023-07-31T17:51:04;2.63;;;2.20;;
8171;SDS011;4127;47.908;10.850;2023-07-31T17:53:31;3.22;;;2.08;;
8171;SDS011;4127;47.908;10.850;2023-07-31T17:55:58;4.15;;;2.40;;
8171;SDS011;4127;47.908;10.850;2023-07-31T17:58:25;3.67;;;2.22;;
8171;SDS011;4127;47.908;10.850;2023-07-31T18:00:52;3.13;;;2.50;;
8171;SDS011;4127;47.908;10.850;2023-07-31T18:03:19;2.40;;;2.20;;
8171;SDS011;4127;47.908;10.850;2023-07-31T18:05:47;2.88;;;2.47;;
8171;SDS011;4127;47.908;10.850;2023-07-31T18:08:14;3.08;;;2.63;;
8171;SDS011;4127;47.908;10.850;2023-07-31T18:10:44;2.80;;;2.45;;
8171;SDS011;4127;47.908;10.850;2023-07-31T18:13:12;2.72;;;2.53;;
8171;SDS011;4127;47.908;10.850;2023-07-31T18:15:46;4.15;;;2.80;;
8171;SDS011;4127;47.908;10.850;2023-07-31T18:18:13;2.90;;;2.40;;
8171;SDS011;4127;47.908;10.850;2023-07-31T18:20:41;3.30;;;2.72;;
8171;SDS011;4127;47.908;10.850;2023-07-31T18:23:07;3.70;;;2.80;;
8171;SDS011;4127;47.908;10.850;2023-07-31T18:25:34;3.55;;;2.60;;
8171;SDS011;4127;47.908;10.850;2023-07-31T18:28:01;3.03;;;2.73;;
8171;SDS011;4127;47.908;10.850;2023-07-31T18:30:29;3.22;;;2.60;;
8171;SDS011;4127;47.908;10.850;2023-07-31T18:32:56;2.47;;;2.28;;
8171;SDS011;4127;47.908;10.850;2023-07-31T18:35:23;2.65;;;2.13;;
8171;SDS011;4127;47.908;10.850;2023-07-31T18:37:50;2.57;;;2.20;;
8171;SDS011;4127;47.908;10.850;2023-07-31T18:40:17;2.70;;;2.50;;
8171;SDS011;4127;47.908;10.850;2023-07-31T18:42:44;2.40;;;2.20;;
8171;SDS011;4127;47.908;10.850;2023-07-31T18:45:14;2.97;;;2.22;;
8171;SDS011;4127;47.908;10.850;2023-07-31T18:47:41;2.40;;;2.20;;
8171;SDS011;4127;47.908;10.850;2023-07-31T18:50:08;2.70;;;2.42;;
8171;SDS011;4127;47.908;10.850;2023-07-31T18:52:35;2.77;;;2.40;;
8171;SDS011;4127;47.908;10.850;2023-07-31T18:55:03;2.50;;;2.30;;
8171;SDS011;4127;47.908;10.850;2023-07-31T18:57:30;2.47;;;2.27;;
8171;SDS011;4127;47.908;10.850;2023-07-31T18:59:57;2.40;;;2.20;;
8171;SDS011;4127;47.908;10.850;2023-07-31T19:02:24;2.33;;;2.13;;
8171;SDS011;4127;47.908;10.850;2023-07-31T19:04:51;3.17;;;2.10;;
8171;SDS011;4127;47.908;10.850;2023-07-31T19:07:17;3.00;;;2.70;;
8171;SDS011;4127;47.908;10.850;2023-07-31T19:09:45;2.53;;;2.30;;
8171;SDS011;4127;47.908;10.850;2023-07-31T19:12:21;2.63;;;2.33;;
8171;SDS011;4127;47.908;10.850;2023-07-31T19:14:48;2.57;;;2.20;;
8171;SDS011;4127;47.908;10.850;2023-07-31T19:17:15;2.50;;;2.30;;
8171;SDS011;4127;47.908;10.850;2023-07-31T19:19:42;2.57;;;2.37;;
8171;SDS011;4127;47.908;10.850;2023-07-31T19:22:08;3.27;;;2.37;;
8171;SDS011;4127;47.908;10.850;2023-07-31T19:24:35;2.57;;;2.30;;
8171;SDS011;4127;47.908;10.850;2023-07-31T19:27:04;2.63;;;2.40;;
8171;SDS011;4127;47.908;10.850;2023-07-31T19:29:31;2.50;;;2.30;;
8171;SDS011;4127;47.908;10.850;2023-07-31T19:31:58;2.43;;;2.23;;
8171;SDS011;4127;47.908;10.850;2023-07-31T19:34:24;2.17;;;1.97;;
8171;SDS011;4127;47.908;10.850;2023-07-31T19:36:51;2.50;;;2.30;;
8171;SDS011;4127;47.908;10.850;2023-07-31T19:39:19;2.53;;;2.30;;
8171;SDS011;4127;47.908;10.850;2023-07-31T19:41:46;2.50;;;2.30;;
8171;SDS011;4127;47.908;10.850;2023-07-31T19:44:13;2.63;;;2.20;;
8171;SDS011;4127;47.908;10.850;2023-07-31T19:46:40;2.37;;;2.17;;
8171;SDS011;4127;47.908;10.850;2023-07-31T19:49:07;3.07;;;2.30;;
8171;SDS011;4127;47.908;10.850;2023-07-31T19:51:34;2.70;;;2.17;;
8171;SDS011;4127;47.908;10.850;2023-07-31T19:54:01;3.07;;;2.60;;
8171;SDS011;4127;47.908;10.850;2023-07-31T19:56:28;2.90;;;2.67;;
8171;SDS011;4127;47.908;10.850;2023-07-31T19:58:55;3.40;;;2.53;;
8171;SDS011;4127;47.908;10.850;2023-07-31T20:01:22;2.53;;;2.30;;
8171;SDS011;4127;47.908;10.850;2023-07-31T20:03:51;2.40;;;2.20;;
8171;SDS011;4127;47.908;10.850;2023-07-31T20:06:19;2.80;;;2.50;;
8171;SDS011;4127;47.908;10.850;2023-07-31T20:08:46;2.43;;;2.20;;
8171;SDS011;4127;47.908;10.850;2023-07-31T20:11:13;2.53;;;2.33;;
8171;SDS011;4127;47.908;10.850;2023-07-31T20:13:40;2.97;;;2.13;;
8171;SDS011;4127;47.908;10.850;2023-07-31T20:16:07;2.40;;;2.20;;
8171;SDS011;4127;47.908;10.850;2023-07-31T20:18:34;2.77;;;2.33;;
8171;SDS011;4127;47.908;10.850;2023-07-31T20:21:01;2.27;;;2.07;;
8171;SDS011;4127;47.908;10.850;2023-07-31T20:23:28;2.77;;;2.40;;
8171;SDS011;4127;47.908;10.850;2023-07-31T20:26:08;3.60;;;2.00;;
8171;SDS011;4127;47.908;10.850;2023-07-31T20:28:35;2.27;;;2.07;;
8171;SDS011;4127;47.908;10.850;2023-07-31T20:31:16;2.93;;;2.37;;
8171;SDS011;4127;47.908;10.850;2023-07-31T20:33:43;2.60;;;2.40;;
8171;SDS011;4127;47.908;10.850;2023-07-31T20:36:10;2.53;;;2.00;;
8171;SDS011;4127;47.908;10.850;2023-07-31T20:38:37;2.03;;;1.93;;
8171;SDS011;4127;47.908;10.850;2023-07-31T20:41:03;2.40;;;2.10;;
8171;SDS011;4127;47.908;10.850;2023-07-31T20:43:30;2.13;;;1.93;;
8171;SDS011;4127;47.908;10.850;2023-07-31T20:45:57;2.77;;;2.20;;
8171;SDS011;4127;47.908;10.850;2023-07-31T20:48:24;2.23;;;2.03;;
8171;SDS011;4127;47.908;10.850;2023-07-31T20:50:51;1.97;;;1.87;;
8171;SDS011;4127;47.908;10.850;2023-07-31T20:53:19;2.57;;;2.30;;
8171;SDS011;4127;47.908;10.850;2023-07-31T20:55:46;1.97;;;1.87;;
8171;SDS011;4127;47.908;10.850;2023-07-31T20:58:13;2.30;;;2.10;;
8171;SDS011;4127;47.908;10.850;2023-07-31T21:00:40;2.80;;;2.30;;
8171;SDS011;4127;47.908;10.850;2023-07-31T21:03:10;3.10;;;2.10;;
8171;SDS011;4127;47.908;10.850;2023-07-31T21:05:37;2.90;;;1.90;;
8171;SDS011;4127;47.908;10.850;2023-07-31T21:08:04;2.60;;;2.40;;
8171;SDS011;4127;47.908;10.850;2023-07-31T21:10:31;2.33;;;2.13;;
8171;SDS011;4127;47.908;10.850;2023-07-31T21:12:59;2.77;;;2.30;;
8171;SDS011;4127;47.908;10.850;2023-07-31T21:15:26;2.30;;;2.10;;
8171;SDS011;4127;47.908;10.850;2023-07-31T21:17:53;2.23;;;2.03;;
8171;SDS011;4127;47.908;10.850;2023-07-31T21:20:20;2.23;;;2.03;;
8171;SDS011;4127;47.908;10.850;2023-07-31T21:22:48;2.43;;;2.23;;
8171;SDS011;4127;47.908;10.850;2023-07-31T21:25:15;2.00;;;1.90;;
8171;SDS011;4127;47.908;10.850;2023-07-31T21:27:54;2.23;;;2.03;;
8171;SDS011;4127;47.908;10.850;2023-07-31T21:30:21;2.30;;;2.10;;
8171;SDS011;4127;47.908;10.850;2023-07-31T21:32:48;2.50;;;2.30;;
8171;SDS011;4127;47.908;10.850;2023-07-31T21:35:14;2.53;;;2.30;;
8171;SDS011;4127;47.908;10.850;2023-07-31T21:37:41;2.40;;;2.20;;
8171;SDS011;4127;47.908;10.850;2023-07-31T21:40:08;2.53;;;2.07;;
8171;SDS011;4127;47.908;10.850;2023-07-31T21:42:36;2.53;;;2.30;;
8171;SDS011;4127;47.908;10.850;2023-07-31T21:45:05;2.30;;;2.10;;
8171;SDS011;4127;47.908;10.850;2023-07-31T21:47:33;2.30;;;2.03;;
8171;SDS011;4127;47.908;10.850;2023-07-31T21:49:59;2.10;;;1.93;;
8171;SDS011;4127;47.908;10.850;2023-07-31T21:52:26;2.40;;;2.20;;
8171;SDS011;4127;47.908;10.850;2023-07-31T21:54:53;2.40;;;2.20;;
8171;SDS011;4127;47.908;10.850;2023-07-31T21:57:20;2.30;;;2.10;;
8171;SDS011;4127;47.908;10.850;2023-07-31T21:59:47;4.77;;;2.13;;
8171;SDS011;4127;47.908;10.850;2023-07-31T22:02:14;3.00;;;2.10;;
8171;SDS011;4127;47.908;10.850;2023-07-31T22:04:41;2.30;;;2.10;;
8171;SDS011;4127;47.908;10.850;2023-07-31T22:07:10;2.23;;;1.97;;
8171;SDS011;4127;47.908;10.850;2023-07-31T22:09:37;2.37;;;2.17;;
8171;SDS011;4127;47.908;10.850;2023-07-31T22:12:05;2.57;;;2.33;;
8171;SDS011;4127;47.908;10.850;2023-07-31T22:14:32;3.07;;;2.30;;
8171;SDS011;4127;47.908;10.850;2023-07-31T22:16:59;2.40;;;2.20;;
8171;SDS011;4127;47.908;10.850;2023-07-31T22:19:26;2.37;;;2.17;;
8171;SDS011;4127;47.908;10.850;2023-07-31T22:21:53;2.40;;;2.20;;
8171;SDS011;4127;47.908;10.850;2023-07-31T22:24:20;2.23;;;2.03;;
8171;SDS011;4127;47.908;10.850;2023-07-31T22:26:47;2.60;;;2.40;;
8171;SDS011;4127;47.908;10.850;2023-07-31T22:29:13;3.33;;;2.30;;
8171;SDS011;4127;47.908;10.850;2023-07-31T22:31:40;2.90;;;2.70;;
8171;SDS011;4127;47.908;10.850;2023-07-31T22:34:07;2.40;;;2.17;;
8171;SDS011;4127;47.908;10.850;2023-07-31T22:36:34;2.70;;;2.50;;
8171;SDS011;4127;47.908;10.850;2023-07-31T22:39:03;2.40;;;2.20;;
8171;SDS011;4127;47.908;10.850;2023-07-31T22:41:30;2.30;;;2.10;;
8171;SDS011;4127;47.908;10.850;2023-07-31T22:43:57;2.30;;;2.10;;
8171;SDS011;4127;47.908;10.850;2023-07-31T22:46:25;3.23;;;2.33;;
8171;SDS011;4127;47.908;10.850;2023-07-31T22:48:52;2.83;;;2.60;;
8171;SDS011;4127;47.908;10.850;2023-07-31T22:51:20;2.47;;;2.27;;
8171;SDS011;4127;47.908;10.850;2023-07-31T22:54:08;4.73;;;2.47;;
8171;SDS011;4127;47.908;10.850;2023-07-31T22:56:34;2.43;;;2.17;;
8171;SDS011;4127;47.908;10.850;2023-07-31T22:59:01;2.53;;;2.33;;
8171;SDS011;4127;47.908;10.850;2023-07-31T23:01:51;3.73;;;2.50;;
8171;SDS011;4127;47.908;10.850;2023-07-31T23:04:32;2.73;;;2.40;;
8171;SDS011;4127;47.908;10.850;2023-07-31T23:06:59;2.50;;;2.30;;
8171;SDS011;4127;47.908;10.850;2023-07-31T23:09:25;2.40;;;2.20;;
8171;SDS011;4127;47.908;10.850;2023-07-31T23:11:52;2.70;;;2.50;;
8171;SDS011;4127;47.908;10.850;2023-07-31T23:14:19;2.73;;;2.53;;
8171;SDS011;4127;47.908;10.850;2023-07-31T23:16:46;3.07;;;2.77;;
8171;SDS011;4127;47.908;10.850;2023-07-31T23:19:13;2.77;;;2.57;;
8171;SDS011;4127;47.908;10.850;2023-07-31T23:21:48;2.80;;;2.60;;
8171;SDS011;4127;47.908;10.850;2023-07-31T23:27:15;2.77;;;2.50;;
8171;SDS011;4127;47.908;10.850;2023-07-31T23:29:42;2.50;;;2.30;;
8171;SDS011;4127;47.908;10.850;2023-07-31T23:32:09;3.00;;;2.70;;
8171;SDS011;4127;47.908;10.850;2023-07-31T23:34:37;3.03;;;2.73;;
8171;SDS011;4127;47.908;10.850;2023-07-31T23:37:04;2.93;;;2.57;;
8171;SDS011;4127;47.908;10.850;2023-07-31T23:39:31;3.13;;;2.83;;
8171;SDS011;4127;47.908;10.850;2023-07-31T23:41:57;3.10;;;2.80;;
8171;SDS011;4127;47.908;10.850;2023-07-31T23:44:24;2.70;;;2.50;;
8171;SDS011;4127;47.908;10.850;2023-07-31T23:47:30;3.03;;;2.50;;
8171;SDS011;4127;47.908;10.850;2023-07-31T23:49:56;3.20;;;2.90;;
8171;SDS011;4127;47.908;10.850;2023-07-31T23:52:36;2.90;;;2.70;;
8171;SDS011;4127;47.908;10.850;2023-07-31T23:55:03;2.80;;;2.40;;
8171;SDS011;4127;47.908;10.850;2023-07-31T23:57:31;3.00;;;2.70;;
